Terminal Aerodrome Forecast
Issued by NWS Bismarck, ND

Home | Current Version | Previous Version | Text Only | Print | Product List | Glossary Off
Versions: 1 2 3 4 5 6 7 8 9 10 11 12 13 14 15 16 17

000
FTUS43 KBIS 261700
TAFBIS
TAF
KBIS 261734Z 2618/2718 07003KT 5SM -SN BR OVC022
     FM262000 32006KT P6SM -SN OVC025
     FM270100 VRB03KT P6SM SCT025 BKN035=

USA.gov is the U.S. government's official web portal to all federal, state and local government web resources and services.